PWSweather.com
Personal Weather Stations
Station Observations
KVAGLENALL
West Henrico, Glen Allen, VA 23060-6503

West HenricoGlen Allen, VA 23060-6503

Lat: 37.6554, Lon: -77.5693

Elevation: 273

Station Type: Davis Vantage Pro II

www.glenallenweather.com

High Low Average
Temperature 53.1°F11.7°C 34.8°F1.6°C 45.8°F7.7°C
Dew Point 52.8°F11.6°C 32.4°F0.2°C 44.1°F6.7°C
Winds 6.0 mph 9.7 kmh Calm Calm 1.0 mph S1.6 kmh S
Wind Gusts 8.1 mph13.0 kmh -- 2.0 mph3.2 kmh
Humidity 99% 86% 94%
Pressure 30.35 in1027.8 mb 30.06 in1017.9 mb -
Precipitation 0.00 in0.0 mm - -
Hour Temp Dew Point Humidity Winds Wind Gusts Pressure Precip Precip Rate Daily Precip Total
12:00 AM 36.9°F2.7°C 33.1°F0.6°C 86% 1.0 mph SE1.6 kmh SE 2.0 mph3.2 kmh 30.35 in1027.8 mb 0.00 in0.0 mm 0.00 in0.0 mm 0.00 in0.0 mm
12:15 AM 36.9°F2.7°C 33.7°F0.9°C 88% 1.0 mph S1.6 kmh S 4.0 mph6.4 kmh 30.35 in1027.8 mb 0.00 in0.0 mm 0.00 in0.0 mm 0.00 in0.0 mm
12:30 AM 37.8°F3.2°C 34.6°F1.4°C 88% 1.0 mph S1.6 kmh S 5.1 mph8.2 kmh 30.34 in1027.4 mb 0.00 in0.0 mm 0.00 in0.0 mm 0.00 in0.0 mm
12:45 AM 38.0°F3.3°C 34.5°F1.4°C 87% 1.0 mph S1.6 kmh S 2.0 mph3.2 kmh 30.34 in1027.4 mb 0.00 in0.0 mm 0.00 in0.0 mm 0.00 in0.0 mm
01:00 AM 37.9°F3.3°C 34.4°F1.3°C 87% 2.0 mph S3.2 kmh S 4.0 mph6.4 kmh 30.34 in1027.4 mb 0.00 in0.0 mm 0.00 in0.0 mm 0.00 in0.0 mm
01:15 AM 37.7°F3.2°C 34.5°F1.4°C 88% Calm Calm 2.0 mph3.2 kmh 30.33 in1027.1 mb 0.00 in0.0 mm 0.00 in0.0 mm 0.00 in0.0 mm
01:30 AM 36.6°F2.6°C 33.4°F0.8°C 88% Calm Calm -- 30.33 in1027.1 mb 0.00 in0.0 mm 0.00 in0.0 mm 0.00 in0.0 mm
01:45 AM 35.9°F2.2°C 33.0°F0.6°C 89% Calm Calm 1.0 mph1.6 kmh 30.33 in1027.1 mb 0.00 in0.0 mm 0.00 in0.0 mm 0.00 in0.0 mm
02:00 AM 35.6°F2.0°C 32.9°F0.5°C 90% Calm Calm -- 30.32 in1026.8 mb 0.00 in0.0 mm 0.00 in0.0 mm 0.00 in0.0 mm
02:15 AM 35.3°F1.8°C 32.6°F0.3°C 90% Calm Calm -- 30.32 in1026.8 mb 0.00 in0.0 mm 0.00 in0.0 mm 0.00 in0.0 mm
02:30 AM 35.5°F1.9°C 33.1°F0.6°C 91% Calm Calm -- 30.31 in1026.4 mb 0.00 in0.0 mm 0.00 in0.0 mm 0.00 in0.0 mm
02:45 AM 35.3°F1.8°C 32.6°F0.3°C 90% Calm Calm -- 30.30 in1026.1 mb 0.00 in0.0 mm 0.00 in0.0 mm 0.00 in0.0 mm
03:00 AM 34.8°F1.6°C 32.4°F0.2°C 91% 2.0 mph S3.2 kmh S 3.0 mph4.8 kmh 30.30 in1026.1 mb 0.00 in0.0 mm 0.00 in0.0 mm 0.00 in0.0 mm
03:15 AM 35.6°F2.0°C 33.8°F1.0°C 93% 2.0 mph SE3.2 kmh SE 4.0 mph6.4 kmh 30.29 in1025.7 mb 0.00 in0.0 mm 0.00 in0.0 mm 0.00 in0.0 mm
03:30 AM 36.7°F2.6°C 34.6°F1.4°C 92% 1.0 mph S1.6 kmh S 2.0 mph3.2 kmh 30.28 in1025.4 mb 0.00 in0.0 mm 0.00 in0.0 mm 0.00 in0.0 mm
03:45 AM 36.9°F2.7°C 34.8°F1.6°C 92% Calm Calm 2.0 mph3.2 kmh 30.28 in1025.4 mb 0.00 in0.0 mm 0.00 in0.0 mm 0.00 in0.0 mm
04:00 AM 37.5°F3.1°C 35.1°F1.7°C 91% 1.0 mph SW1.6 kmh SW 1.0 mph1.6 kmh 30.28 in1025.4 mb 0.00 in0.0 mm 0.00 in0.0 mm 0.00 in0.0 mm
04:15 AM 37.7°F3.2°C 35.0°F1.7°C 90% Calm Calm -- 30.27 in1025.1 mb 0.00 in0.0 mm 0.00 in0.0 mm 0.00 in0.0 mm
04:30 AM 37.9°F3.3°C 35.2°F1.8°C 90% Calm Calm -- 30.28 in1025.4 mb 0.00 in0.0 mm 0.00 in0.0 mm 0.00 in0.0 mm
04:45 AM 37.8°F3.2°C 35.1°F1.7°C 90% Calm Calm -- 30.27 in1025.1 mb 0.00 in0.0 mm 0.00 in0.0 mm 0.00 in0.0 mm
05:00 AM 38.1°F3.4°C 35.4°F1.9°C 90% Calm Calm -- 30.28 in1025.4 mb 0.00 in0.0 mm 0.00 in0.0 mm 0.00 in0.0 mm
05:15 AM 38.5°F3.6°C 35.8°F2.1°C 90% Calm Calm -- 30.28 in1025.4 mb 0.00 in0.0 mm 0.00 in0.0 mm 0.00 in0.0 mm
05:30 AM 38.7°F3.7°C 36.0°F2.2°C 90% Calm Calm -- 30.28 in1025.4 mb 0.00 in0.0 mm 0.00 in0.0 mm 0.00 in0.0 mm
05:45 AM 38.8°F3.8°C 36.1°F2.3°C 90% Calm Calm -- 30.28 in1025.4 mb 0.00 in0.0 mm 0.00 in0.0 mm 0.00 in0.0 mm
06:00 AM 39.3°F4.1°C 36.6°F2.6°C 90% Calm Calm -- 30.28 in1025.4 mb 0.00 in0.0 mm 0.00 in0.0 mm 0.00 in0.0 mm
06:15 AM 39.6°F4.2°C 36.6°F2.6°C 89% Calm Calm -- 30.29 in1025.7 mb 0.00 in0.0 mm 0.00 in0.0 mm 0.00 in0.0 mm
06:30 AM 40.0°F4.4°C 37.0°F2.8°C 89% Calm Calm -- 30.29 in1025.7 mb 0.00 in0.0 mm 0.00 in0.0 mm 0.00 in0.0 mm
06:45 AM 40.5°F4.7°C 37.2°F2.9°C 88% Calm Calm -- 30.28 in1025.4 mb 0.00 in0.0 mm 0.00 in0.0 mm 0.00 in0.0 mm
07:00 AM 40.9°F4.9°C 37.6°F3.1°C 88% Calm Calm -- 30.28 in1025.4 mb 0.00 in0.0 mm 0.00 in0.0 mm 0.00 in0.0 mm
07:15 AM 41.2°F5.1°C 37.9°F3.3°C 88% 2.0 mph SSE3.2 kmh SSE 3.0 mph4.8 kmh 30.28 in1025.4 mb 0.00 in0.0 mm 0.00 in0.0 mm 0.00 in0.0 mm
07:30 AM 41.3°F5.2°C 38.0°F3.3°C 88% 1.0 mph SSE1.6 kmh SSE 1.0 mph1.6 kmh 30.28 in1025.4 mb 0.00 in0.0 mm 0.00 in0.0 mm 0.00 in0.0 mm
07:45 AM 41.9°F5.5°C 38.6°F3.7°C 88% Calm Calm -- 30.28 in1025.4 mb 0.00 in0.0 mm 0.00 in0.0 mm 0.00 in0.0 mm
08:00 AM 42.5°F5.8°C 39.2°F4.0°C 88% Calm Calm -- 30.28 in1025.4 mb 0.00 in0.0 mm 0.00 in0.0 mm 0.00 in0.0 mm
08:15 AM 43.5°F6.4°C 40.2°F4.6°C 88% Calm Calm 2.0 mph3.2 kmh 30.27 in1025.1 mb 0.00 in0.0 mm 0.00 in0.0 mm 0.00 in0.0 mm
08:30 AM 44.2°F6.8°C 40.6°F4.8°C 87% 2.0 mph SE3.2 kmh SE 2.0 mph3.2 kmh 30.26 in1024.7 mb 0.00 in0.0 mm 0.00 in0.0 mm 0.00 in0.0 mm
08:45 AM 44.8°F7.1°C 41.2°F5.1°C 87% 2.0 mph SE3.2 kmh SE 4.0 mph6.4 kmh 30.26 in1024.7 mb 0.00 in0.0 mm 0.00 in0.0 mm 0.00 in0.0 mm
09:00 AM 45.4°F7.4°C 42.1°F5.6°C 88% 2.0 mph S3.2 kmh S 4.0 mph6.4 kmh 30.25 in1024.4 mb 0.00 in0.0 mm 0.00 in0.0 mm 0.00 in0.0 mm
09:15 AM 45.7°F7.6°C 43.3°F6.3°C 91% 2.0 mph SW3.2 kmh SW 4.0 mph6.4 kmh 30.26 in1024.7 mb 0.00 in0.0 mm 0.00 in0.0 mm 0.00 in0.0 mm
09:30 AM 45.5°F7.5°C 43.3°F6.3°C 92% 2.0 mph SSW3.2 kmh SSW 5.1 mph8.2 kmh 30.25 in1024.4 mb 0.06 in1.5 mm 0.24 in6.1 mm 0.06 in1.5 mm
09:45 AM 45.3°F7.4°C 43.4°F6.3°C 93% 2.0 mph SSE3.2 kmh SSE 4.0 mph6.4 kmh 30.25 in1024.4 mb 0.12 in3.0 mm 0.24 in6.1 mm 0.12 in3.0 mm
10:00 AM 45.5°F7.5°C 43.9°F6.6°C 94% Calm Calm -- 30.25 in1024.4 mb 0.19 in4.8 mm 0.09 in2.3 mm 0.19 in4.8 mm
10:15 AM 45.9°F7.7°C 44.6°F7.0°C 95% Calm Calm -- 30.24 in1024.0 mb 0.23 in5.8 mm 0.16 in4.1 mm 0.23 in5.8 mm
10:30 AM 46.1°F7.8°C 44.8°F7.1°C 95% 2.0 mph E3.2 kmh E 2.0 mph3.2 kmh 30.24 in1024.0 mb 0.21 in5.3 mm 0.00 in0.0 mm 0.23 in5.8 mm
10:45 AM 46.0°F7.8°C 44.7°F7.1°C 95% Calm Calm -- 30.24 in1024.0 mb 0.25 in6.4 mm 0.16 in4.1 mm 0.27 in6.9 mm
11:00 AM 46.2°F7.9°C 44.9°F7.2°C 95% 1.0 mph SW1.6 kmh SW 2.0 mph3.2 kmh 30.24 in1024.0 mb 0.27 in6.9 mm 0.03 in0.8 mm 0.29 in7.4 mm
11:15 AM 46.1°F7.8°C 44.8°F7.1°C 95% Calm Calm 1.0 mph1.6 kmh 30.24 in1024.0 mb 0.39 in9.9 mm 0.48 in12.2 mm 0.41 in10.4 mm
11:30 AM 46.3°F7.9°C 45.3°F7.4°C 96% Calm Calm -- 30.23 in1023.7 mb 0.32 in8.1 mm 0.00 in0.0 mm 0.41 in10.4 mm
11:45 AM 46.6°F8.1°C 45.6°F7.6°C 96% 1.0 mph SSW1.6 kmh SSW 1.0 mph1.6 kmh 30.22 in1023.4 mb 0.32 in8.1 mm 0.00 in0.0 mm 0.41 in10.4 mm
12:00 PM 46.8°F8.2°C 45.8°F7.7°C 96% Calm Calm 1.0 mph1.6 kmh 30.21 in1023.0 mb 0.14 in3.6 mm 0.00 in0.0 mm 0.41 in10.4 mm
12:15 PM 47.2°F8.4°C 46.2°F7.9°C 96% Calm Calm -- 30.20 in1022.7 mb 0.15 in3.8 mm 0.04 in1.0 mm 0.42 in10.7 mm
12:30 PM 47.6°F8.7°C 46.6°F8.1°C 96% Calm Calm -- 30.18 in1022.0 mb 0.03 in0.8 mm 0.00 in0.0 mm 0.42 in10.7 mm
12:45 PM 48.0°F8.9°C 47.0°F8.3°C 96% Calm Calm -- 30.18 in1022.0 mb 0.03 in0.8 mm 0.00 in0.0 mm 0.42 in10.7 mm
01:00 PM 48.2°F9.0°C 47.2°F8.4°C 96% Calm Calm -- 30.17 in1021.7 mb 0.02 in0.5 mm 0.00 in0.0 mm 0.42 in10.7 mm
01:15 PM 48.7°F9.3°C 47.7°F8.7°C 96% Calm Calm -- 30.16 in1021.3 mb 0.02 in0.5 mm 0.00 in0.0 mm 0.42 in10.7 mm
01:30 PM 49.0°F9.4°C 48.0°F8.9°C 96% Calm Calm -- 30.15 in1021.0 mb 0.03 in0.8 mm 0.04 in1.0 mm 0.43 in10.9 mm
01:45 PM 49.6°F9.8°C 48.5°F9.2°C 96% Calm Calm -- 30.15 in1021.0 mb 0.03 in0.8 mm 0.00 in0.0 mm 0.43 in10.9 mm
02:00 PM 49.7°F9.8°C 48.3°F9.1°C 95% Calm Calm -- 30.13 in1020.3 mb 0.03 in0.8 mm 0.00 in0.0 mm 0.43 in10.9 mm
02:15 PM 50.1°F10.1°C 48.7°F9.3°C 95% Calm Calm 2.0 mph3.2 kmh 30.12 in1020.0 mb 0.03 in0.8 mm 0.00 in0.0 mm 0.43 in10.9 mm
02:30 PM 50.3°F10.2°C 49.2°F9.6°C 96% Calm Calm -- 30.12 in1020.0 mb 0.00 in0.0 mm 0.00 in0.0 mm 0.43 in10.9 mm
02:45 PM 50.6°F10.3°C 49.5°F9.7°C 96% 1.0 mph SW1.6 kmh SW 3.0 mph4.8 kmh 30.12 in1020.0 mb 0.00 in0.0 mm 0.00 in0.0 mm 0.43 in10.9 mm
03:00 PM 50.6°F10.3°C 49.5°F9.7°C 96% 1.0 mph SW1.6 kmh SW 3.0 mph4.8 kmh 30.13 in1020.3 mb 0.01 in0.3 mm 0.01 in0.3 mm 0.44 in11.2 mm
03:15 PM 50.5°F10.3°C 49.4°F9.7°C 96% 2.0 mph SW3.2 kmh SW 2.0 mph3.2 kmh 30.12 in1020.0 mb 0.02 in0.5 mm 0.04 in1.0 mm 0.45 in11.4 mm
03:30 PM 51.0°F10.6°C 49.9°F9.9°C 96% 1.0 mph SW1.6 kmh SW 1.0 mph1.6 kmh 30.12 in1020.0 mb 0.02 in0.5 mm 0.00 in0.0 mm 0.45 in11.4 mm
03:45 PM 51.2°F10.7°C 50.1°F10.1°C 96% 1.0 mph SE1.6 kmh SE 3.0 mph4.8 kmh 30.11 in1019.6 mb 0.02 in0.5 mm 0.00 in0.0 mm 0.45 in11.4 mm
04:00 PM 51.2°F10.7°C 50.1°F10.1°C 96% Calm Calm 1.0 mph1.6 kmh 30.11 in1019.6 mb 0.01 in0.3 mm 0.00 in0.0 mm 0.45 in11.4 mm
04:15 PM 51.4°F10.8°C 50.3°F10.2°C 96% 1.0 mph SSW1.6 kmh SSW 3.0 mph4.8 kmh 30.11 in1019.6 mb 0.01 in0.3 mm 0.00 in0.0 mm 0.45 in11.4 mm
04:30 PM 51.4°F10.8°C 50.3°F10.2°C 96% 2.0 mph SSW3.2 kmh SSW 2.0 mph3.2 kmh 30.12 in1020.0 mb 0.00 in0.0 mm 0.00 in0.0 mm 0.45 in11.4 mm
04:45 PM 51.4°F10.8°C 50.3°F10.2°C 96% 1.0 mph SSW1.6 kmh SSW 3.0 mph4.8 kmh 30.12 in1020.0 mb 0.00 in0.0 mm 0.00 in0.0 mm 0.45 in11.4 mm
05:00 PM 51.5°F10.8°C 50.4°F10.2°C 96% 3.0 mph S4.8 kmh S 3.0 mph4.8 kmh 30.12 in1020.0 mb 0.00 in0.0 mm 0.00 in0.0 mm 0.45 in11.4 mm
05:15 PM 51.5°F10.8°C 50.4°F10.2°C 96% Calm Calm -- 30.11 in1019.6 mb 0.00 in0.0 mm 0.00 in0.0 mm 0.45 in11.4 mm
05:30 PM 51.6°F10.9°C 50.5°F10.3°C 96% 2.0 mph SW3.2 kmh SW 2.0 mph3.2 kmh 30.11 in1019.6 mb 0.00 in0.0 mm 0.00 in0.0 mm 0.45 in11.4 mm
05:45 PM 51.5°F10.8°C 50.4°F10.2°C 96% 1.0 mph SW1.6 kmh SW 2.0 mph3.2 kmh 30.10 in1019.3 mb 0.00 in0.0 mm 0.00 in0.0 mm 0.45 in11.4 mm
06:00 PM 51.5°F10.8°C 50.4°F10.2°C 96% Calm Calm -- 30.10 in1019.3 mb 0.00 in0.0 mm 0.00 in0.0 mm 0.45 in11.4 mm
06:15 PM 51.6°F10.9°C 50.5°F10.3°C 96% 1.0 mph SSW1.6 kmh SSW 3.0 mph4.8 kmh 30.11 in1019.6 mb 0.00 in0.0 mm 0.00 in0.0 mm 0.45 in11.4 mm
06:30 PM 51.7°F10.9°C 50.8°F10.4°C 97% 5.0 mph SSW8.0 kmh SSW 7.1 mph11.4 kmh 30.12 in1020.0 mb 0.00 in0.0 mm 0.00 in0.0 mm 0.45 in11.4 mm
06:45 PM 51.7°F10.9°C 50.8°F10.4°C 97% 4.0 mph S6.4 kmh S 4.0 mph6.4 kmh 30.11 in1019.6 mb 0.00 in0.0 mm 0.00 in0.0 mm 0.45 in11.4 mm
07:00 PM 51.7°F10.9°C 50.8°F10.4°C 97% 2.0 mph S3.2 kmh S 3.0 mph4.8 kmh 30.11 in1019.6 mb 0.00 in0.0 mm 0.00 in0.0 mm 0.45 in11.4 mm
07:15 PM 51.7°F10.9°C 50.8°F10.4°C 97% 2.0 mph S3.2 kmh S 2.0 mph3.2 kmh 30.11 in1019.6 mb 0.00 in0.0 mm 0.00 in0.0 mm 0.45 in11.4 mm
07:30 PM 51.8°F11.0°C 50.9°F10.5°C 97% 1.0 mph SSW1.6 kmh SSW 3.0 mph4.8 kmh 30.11 in1019.6 mb 0.00 in0.0 mm 0.00 in0.0 mm 0.45 in11.4 mm
07:45 PM 52.0°F11.1°C 51.1°F10.6°C 97% 2.0 mph S3.2 kmh S 4.0 mph6.4 kmh 30.11 in1019.6 mb 0.00 in0.0 mm 0.00 in0.0 mm 0.45 in11.4 mm
08:00 PM 52.1°F11.2°C 51.2°F10.7°C 97% 2.0 mph SSW3.2 kmh SSW 4.0 mph6.4 kmh 30.10 in1019.3 mb 0.00 in0.0 mm 0.00 in0.0 mm 0.45 in11.4 mm
08:15 PM 52.4°F11.3°C 51.5°F10.8°C 97% 1.0 mph S1.6 kmh S 3.0 mph4.8 kmh 30.09 in1019.0 mb 0.00 in0.0 mm 0.00 in0.0 mm 0.45 in11.4 mm
08:30 PM 52.6°F11.4°C 52.0°F11.1°C 98% Calm Calm -- 30.09 in1019.0 mb 0.00 in0.0 mm 0.00 in0.0 mm 0.45 in11.4 mm
08:45 PM 52.5°F11.4°C 51.9°F11.1°C 98% Calm Calm -- 30.09 in1019.0 mb 0.02 in0.5 mm 0.08 in2.0 mm 0.47 in11.9 mm
09:00 PM 52.7°F11.5°C 52.4°F11.3°C 99% 2.0 mph SSW3.2 kmh SSW 2.0 mph3.2 kmh 30.08 in1018.6 mb 0.02 in0.5 mm 0.00 in0.0 mm 0.47 in11.9 mm
09:15 PM 53.1°F11.7°C 52.8°F11.6°C 99% 2.0 mph S3.2 kmh S 2.0 mph3.2 kmh 30.08 in1018.6 mb 0.03 in0.8 mm 0.04 in1.0 mm 0.48 in12.2 mm
09:30 PM 53.1°F11.7°C 52.8°F11.6°C 99% 1.0 mph S1.6 kmh S 2.0 mph3.2 kmh 30.08 in1018.6 mb 0.03 in0.8 mm 0.00 in0.0 mm 0.48 in12.2 mm
09:45 PM 53.1°F11.7°C 52.8°F11.6°C 99% Calm Calm -- 30.07 in1018.3 mb 0.03 in0.8 mm 0.00 in0.0 mm 0.48 in12.2 mm
10:00 PM 53.1°F11.7°C 52.8°F11.6°C 99% Calm Calm -- 30.06 in1017.9 mb 0.01 in0.3 mm 0.00 in0.0 mm 0.48 in12.2 mm
10:15 PM 53.1°F11.7°C 52.8°F11.6°C 99% Calm Calm -- 30.06 in1017.9 mb 0.03 in0.8 mm 0.08 in2.0 mm 0.50 in12.7 mm
10:30 PM 53.1°F11.7°C 52.8°F11.6°C 99% 6.0 mph WNW9.7 kmh WNW 8.1 mph13.0 kmh 30.07 in1018.3 mb 0.02 in0.5 mm 0.00 in0.0 mm 0.50 in12.7 mm
10:45 PM 53.0°F11.7°C 52.7°F11.5°C 99% 2.0 mph NW3.2 kmh NW 4.0 mph6.4 kmh 30.06 in1017.9 mb 0.27 in6.9 mm 1.00 in25.4 mm 0.75 in19.1 mm
11:00 PM 53.1°F11.7°C 52.8°F11.6°C 99% Calm Calm 1.0 mph1.6 kmh 30.06 in1017.9 mb 0.29 in7.4 mm 0.03 in0.8 mm 0.77 in19.6 mm
11:15 PM 53.1°F11.7°C 52.8°F11.6°C 99% Calm Calm 1.0 mph1.6 kmh 30.06 in1017.9 mb 0.32 in8.1 mm 0.12 in3.0 mm 0.80 in20.3 mm
11:30 PM 53.1°F11.7°C 52.8°F11.6°C 99% Calm Calm -- 30.06 in1017.9 mb 0.33 in8.4 mm 0.04 in1.0 mm 0.81 in20.6 mm
11:45 PM 52.9°F11.6°C 52.6°F11.4°C 99% 5.0 mph WSW8.0 kmh WSW 7.1 mph11.4 kmh 30.07 in1018.3 mb 0.34 in8.6 mm 0.04 in1.0 mm 0.82 in20.8 mm